Hauptseite
METAR-TAF:

METAR-TAF

Flughäfen :

Fliegerhorst Büchel

Büchel, Deutschland

Breite: 50-10N, Länge: 007-04E, Höhe: 478 m

Beobachtung

Neuester Wetterbericht von vor 21 Minuten, um 13:20 UTC
Wind 9 kt aus Nordost
Temperatur 23°C
Luftfeuchtigkeit 47%
Luftdruck 1016 hPa
Sichtweite 10 km oder mehr
Leicht bewölkt in der Höhe von 5000 ft, Kumulonimbus.
Durchbrochene Bewölkung in der Höhe von 6000 ft, Towering cumulus.

METAR: ETSB 171320Z 04009KT 9999 FEW050CB BKN060TCU 23/11 Q1016 BLU BLU+

Zeit: 15:41 (13:41 UTC)

Prognose

Neuester Wetterbericht von vor 21 Minuten, um 13:20 UTC
Gültige Prognose vom 17 um 14 UTC bis 17 um 23 UTC
Wind 8 kt aus West/Nordwest
Sichtweite 10 km oder mehr
Leicht bewölkt in der Höhe von 5000 ft
Durchbrochene Bewölkung in der Höhe von 25000 ft

TAF: ETSB 171320Z 1714/1723 29008KT 9999 NSW FEW050 BKN250 BY ETGL

Wetterbeobachtungen und Prognosen von mehr als 4000 Flughäfen (METAR und TAF Bericht).

Die verfügbaren Stationen werden durch gelbe und rote Markierungen auf der Karte dargestellt.

Führen Sie die Maus auf sie, um den Namen der Station zu sehen.

Darauf klicken, um die Beobachtung von Wetterbeobachtungen und Prognosen zu sehen.

Um die Karte zu ändern : klicken Sie auf den grünen Tasten mit einem schwarzen Kreuz Zum Vergrößern, auf den grünen Button mit einem Gedankenstrich zu verkleinern, oder auf die grünen Pfeile für benachbarte Karten.


METAR-TAF: